Time;durP1;ratioP1;P1;durP2;ratioP2;P2;SDS_P1;SDS_P2;PMS_P1;PMS_P2;Temp;Humidity;BMP_temperature;BMP_pressure;BME280_temperature;BME280_humidity;BME280_pressure;Samples;Min_cycle;Max_cycle;Signal;HPM_P1;HPM_P2
2021/04/23 04:46:37;;;;;;;12.32;4.45;;;;;;;;;;6252045;22;884347;-80
2021/04/23 04:49:03;;;;;;;9.75;4.28;;;;;;;;;;6285636;22;20011;-80
2021/04/23 04:51:29;;;;;;;6.75;3.67;;;;;;;;;;6311839;22;20102;-80
2021/04/23 04:53:54;;;;;;;9.75;3.47;;;;;;;;;;6284756;22;20440;-80
2021/04/23 04:56:20;;;;;;;9.23;3.33;;;;;;;;;;6296603;22;19991;-80
2021/04/23 04:58:46;;;;;;;9.38;3.25;;;;;;;;;;6253630;22;20095;-80
2021/04/23 05:01:14;;;;;;;12.27;3.63;;;;;;;;;;6281305;22;20004;-81
2021/04/23 05:03:40;;;;;;;11.15;3.55;;;;;;;;;;6257034;22;19999;-81
2021/04/23 05:06:08;;;;;;;8.27;3.80;;;;;;;;;;6288222;22;20341;-81
2021/04/23 05:08:33;;;;;;;7.82;3.10;;;;;;;;;;6260161;22;20022;-80
2021/04/23 05:10:59;;;;;;;8.63;4.28;;;;;;;;;;6260382;22;20448;-80
2021/04/23 05:15:44;;;;;;;7.32;3.55;;;;;;;;;;5128979;27;20423;-81
2021/04/23 05:18:10;;;;;;;13.40;4.22;;;;;;;;;;5112222;28;20104;-81
2021/04/23 05:20:36;;;;;;;7.68;3.45;;;;;;;;;;5110425;28;20020;-82
2021/04/23 05:23:02;;;;;;;11.57;3.55;;;;;;;;;;5112086;28;20027;-82
2021/04/23 05:25:29;;;;;;;9.23;3.60;;;;;;;;;;5108327;28;20023;-82
2021/04/23 05:27:55;;;;;;;9.45;3.72;;;;;;;;;;5112474;28;20031;-82
2021/04/23 05:30:22;;;;;;;8.90;3.63;;;;;;;;;;5108730;28;20530;-82
2021/04/23 05:32:48;;;;;;;8.35;3.45;;;;;;;;;;5109766;28;20020;-82
2021/04/23 05:35:14;;;;;;;8.35;3.85;;;;;;;;;;5106256;28;20016;-82
2021/04/23 05:37:40;;;;;;;8.25;4.03;;;;;;;;;;5098298;28;20024;-82
2021/04/23 05:40:07;;;;;;;12.32;3.88;;;;;;;;;;5105133;28;20012;-82
2021/04/23 05:42:33;;;;;;;8.82;4.40;;;;;;;;;;5109584;28;20024;-82
2021/04/23 05:44:58;;;;;;;9.02;4.65;;;;;;;;;;5112133;28;20473;-82
2021/04/23 05:47:24;;;;;;;15.93;7.07;;;;;;;;;;5111454;28;20016;-82
2021/04/23 05:49:50;;;;;;;10.80;5.72;;;;;;;;;;5115016;28;20085;-82
2021/04/23 05:52:16;;;;;;;9.55;4.20;;;;;;;;;;5111948;28;20043;-82
2021/04/23 05:54:42;;;;;;;14.27;6.22;;;;;;;;;;5109653;28;20024;-82
2021/04/23 05:57:08;;;;;;;18.77;5.13;;;;;;;;;;5103603;28;20379;-82
2021/04/23 05:59:33;;;;;;;13.40;5.72;;;;;;;;;;5107093;28;20020;-82
2021/04/23 06:01:59;;;;;;;8.75;4.50;;;;;;;;;;5095169;28;20048;-82
2021/04/23 06:04:25;;;;;;;10.15;5.32;;;;;;;;;;5113086;28;20020;-82
2021/04/23 06:06:51;;;;;;;12.90;5.03;;;;;;;;;;5100897;28;20058;-82
2021/04/23 06:09:17;;;;;;;8.80;3.55;;;;;;;;;;5109717;28;20028;-82
2021/04/23 06:11:43;;;;;;;12.25;3.65;;;;;;;;;;5097933;28;20440;-81
2021/04/23 06:14:09;;;;;;;13.05;4.40;;;;;;;;;;5091193;28;20028;-82
2021/04/23 06:16:35;;;;;;;9.55;4.00;;;;;;;;;;5094126;28;20506;-82
2021/04/23 06:19:01;;;;;;;10.23;4.90;;;;;;;;;;5105041;28;20024;-82
2021/04/23 06:21:27;;;;;;;15.65;4.88;;;;;;;;;;5105798;28;20459;-82
2021/04/23 06:23:53;;;;;;;11.30;4.97;;;;;;;;;;5102806;28;20032;-82
2021/04/23 06:26:18;;;;;;;13.13;5.68;;;;;;;;;;5095881;28;20131;-83
2021/04/23 06:28:47;;;;;;;11.70;5.20;;;;;;;;;;5082137;28;20029;-83
2021/04/23 06:31:14;;;;;;;10.07;4.40;;;;;;;;;;5083054;28;20450;-83
2021/04/23 06:33:43;;;;;;;13.68;6.63;;;;;;;;;;5090467;28;20092;-83
2021/04/23 06:36:09;;;;;;;11.13;5.70;;;;;;;;;;5091893;28;20115;-83
2021/04/23 06:38:35;;;;;;;12.55;5.45;;;;;;;;;;5093551;28;20085;-83
2021/04/23 06:41:01;;;;;;;14.63;6.07;;;;;;;;;;5088018;28;20024;-82
2021/04/23 06:43:27;;;;;;;15.52;5.80;;;;;;;;;;5086448;28;20051;-82
2021/04/23 06:45:53;;;;;;;15.07;5.70;;;;;;;;;;5088117;28;20024;-81
2021/04/23 06:48:20;;;;;;;12.25;5.82;;;;;;;;;;5088666;28;20039;-81
2021/04/23 06:50:46;;;;;;;20.77;6.53;;;;;;;;;;5088563;28;20053;-82
2021/04/23 06:53:12;;;;;;;12.15;5.15;;;;;;;;;;5089075;28;20021;-81
2021/04/23 06:55:37;;;;;;;14.35;6.00;;;;;;;;;;5089913;28;20024;-81
2021/04/23 06:58:04;;;;;;;10.65;4.38;;;;;;;;;;5093807;28;20029;-81
2021/04/23 07:00:31;;;;;;;11.18;4.55;;;;;;;;;;5087752;28;20020;-82
2021/04/23 07:02:58;;;;;;;14.27;4.95;;;;;;;;;;5087969;28;20128;-81
2021/04/23 07:05:24;;;;;;;24.95;4.88;;;;;;;;;;5087248;28;20080;-82
2021/04/23 07:07:49;;;;;;;14.20;5.65;;;;;;;;;;5088170;28;20027;-81
2021/04/23 07:10:16;;;;;;;15.88;5.28;;;;;;;;;;5088915;28;20025;-81
2021/04/23 07:12:42;;;;;;;10.57;4.22;;;;;;;;;;5082679;28;20369;-81
2021/04/23 07:15:09;;;;;;;14.63;5.13;;;;;;;;;;5094673;28;20027;-81
2021/04/23 07:17:35;;;;;;;12.52;4.90;;;;;;;;;;5094802;28;20051;-81
2021/04/23 07:20:01;;;;;;;16.52;4.93;;;;;;;;;;5091126;28;20028;-81
2021/04/23 07:22:26;;;;;;;12.38;4.22;;;;;;;;;;5087375;28;20016;-81
2021/04/23 07:24:52;;;;;;;15.63;5.15;;;;;;;;;;5084824;28;20040;-81
2021/04/23 07:27:18;;;;;;;16.35;5.40;;;;;;;;;;5086573;28;20032;-82
2021/04/23 07:29:43;;;;;;;13.05;5.38;;;;;;;;;;5072928;28;20017;-82
2021/04/23 07:32:09;;;;;;;10.70;4.47;;;;;;;;;;5083117;28;20197;-81
2021/04/23 07:34:35;;;;;;;13.02;5.25;;;;;;;;;;5076373;28;20059;-81
2021/04/23 07:37:01;;;;;;;17.23;4.50;;;;;;;;;;5076910;28;20750;-82
2021/04/23 07:39:27;;;;;;;9.18;4.85;;;;;;;;;;5084272;28;20028;-82
2021/04/23 07:41:56;;;;;;;15.18;4.93;;;;;;;;;;5093757;28;20051;-81
2021/04/23 07:44:23;;;;;;;12.77;4.97;;;;;;;;;;5089984;28;20020;-81
2021/04/23 07:46:49;;;;;;;12.23;4.63;;;;;;;;;;5094233;28;20050;-81
2021/04/23 07:49:15;;;;;;;17.13;6.05;;;;;;;;;;5094738;28;20060;-81
2021/04/23 07:51:40;;;;;;;12.27;5.22;;;;;;;;;;5094977;28;20050;-81
2021/04/23 07:54:08;;;;;;;10.43;5.15;;;;;;;;;;5085288;28;20103;-82
2021/04/23 07:56:34;;;;;;;11.45;4.85;;;;;;;;;;5094899;28;20047;-82
2021/04/23 07:58:59;;;;;;;9.50;5.43;;;;;;;;;;5083747;28;20017;-82
2021/04/23 08:01:25;;;;;;;14.60;5.47;;;;;;;;;;5087558;28;20088;-82
2021/04/23 08:06:09;;;;;;;11.50;5.95;;;;;;;;;;5112961;27;20435;-83
2021/04/23 08:08:34;;;;;;;11.50;5.03;;;;;;;;;;5111631;28;20020;-84
2021/04/23 08:11:00;;;;;;;12.48;5.18;;;;;;;;;;5104088;28;20024;-82
2021/04/23 08:13:25;;;;;;;14.70;5.35;;;;;;;;;;5103905;28;20527;-81
2021/04/23 08:15:51;;;;;;;12.18;5.60;;;;;;;;;;5111604;28;20087;-83
2021/04/23 08:18:19;;;;;;;10.50;5.05;;;;;;;;;;5106918;28;19963;-81
2021/04/23 08:20:45;;;;;;;15.45;6.28;;;;;;;;;;5103911;28;20099;-81
2021/04/23 08:23:11;;;;;;;10.07;4.72;;;;;;;;;;5096881;28;20439;-82
2021/04/23 08:25:36;;;;;;;7.47;4.53;;;;;;;;;;5095440;28;20016;-82
2021/04/23 08:28:02;;;;;;;9.68;5.13;;;;;;;;;;5094184;28;20036;-82
2021/04/23 08:30:28;;;;;;;9.55;5.13;;;;;;;;;;5109873;28;20022;-82
2021/04/23 08:32:55;;;;;;;7.82;4.55;;;;;;;;;;5098529;28;20020;-82
2021/04/23 08:35:21;;;;;;;13.18;5.10;;;;;;;;;;5091369;28;20761;-82
2021/04/23 08:37:47;;;;;;;11.55;6.50;;;;;;;;;;5090059;28;20075;-82
2021/04/23 08:40:14;;;;;;;13.60;5.93;;;;;;;;;;5092534;28;20028;-82
2021/04/23 08:42:39;;;;;;;9.70;4.70;;;;;;;;;;5097399;28;20065;-81
2021/04/23 08:45:10;;;;;;;12.52;5.10;;;;;;;;;;5099199;28;20026;-82
2021/04/23 08:47:37;;;;;;;16.48;5.57;;;;;;;;;;5098043;28;20024;-82
2021/04/23 08:50:04;;;;;;;9.52;4.97;;;;;;;;;;5115551;28;20027;-82
2021/04/23 08:52:30;;;;;;;10.88;6.10;;;;;;;;;;5101664;28;20017;-81
2021/04/23 08:54:56;;;;;;;9.05;5.28;;;;;;;;;;5102336;28;20050;-81
2021/04/23 08:57:22;;;;;;;11.00;5.53;;;;;;;;;;5099437;28;20028;-82
2021/04/23 08:59:48;;;;;;;9.50;5.72;;;;;;;;;;5099162;28;20034;-81
2021/04/23 09:02:13;;;;;;;11.27;5.28;;;;;;;;;;5104203;28;20073;-82
2021/04/23 09:04:39;;;;;;;11.95;5.95;;;;;;;;;;5101747;28;20015;-82
2021/04/23 09:07:09;;;;;;;8.88;5.60;;;;;;;;;;5104958;28;20024;-82
2021/04/23 09:09:36;;;;;;;10.52;4.88;;;;;;;;;;5109559;28;20515;-82
2021/04/23 09:12:14;;;;;;;12.90;5.90;;;;;;;;;;5098679;28;20244;-82
2021/04/23 09:14:40;;;;;;;8.43;4.55;;;;;;;;;;5109531;28;20024;-81
2021/04/23 09:17:06;;;;;;;15.30;5.30;;;;;;;;;;5084562;28;20028;-82
2021/04/23 09:19:35;;;;;;;12.98;5.25;;;;;;;;;;5083698;28;20036;-83
2021/04/23 09:22:02;;;;;;;12.38;5.47;;;;;;;;;;5106560;28;20039;-84
2021/04/23 09:24:28;;;;;;;11.65;5.65;;;;;;;;;;5093878;28;20025;-83
2021/04/23 09:26:54;;;;;;;11.23;4.88;;;;;;;;;;5087648;28;20046;-84
2021/04/23 09:29:24;;;;;;;11.63;5.60;;;;;;;;;;5098797;28;20041;-84
2021/04/23 09:31:50;;;;;;;10.73;5.13;;;;;;;;;;5088414;28;20027;-84
2021/04/23 09:34:17;;;;;;;11.32;4.75;;;;;;;;;;5089013;28;20020;-84
2021/04/23 09:36:45;;;;;;;14.90;5.03;;;;;;;;;;5086099;28;20031;-84
2021/04/23 09:39:12;;;;;;;13.27;5.25;;;;;;;;;;5095475;28;20087;-84
2021/04/23 09:41:42;;;;;;;12.82;5.70;;;;;;;;;;5093258;28;20084;-84
2021/04/23 09:44:24;;;;;;;10.87;5.33;;;;;;;;;;5092497;28;20020;-84
2021/04/23 09:46:56;;;;;;;10.75;5.25;;;;;;;;;;5087642;28;20020;-84
2021/04/23 09:49:22;;;;;;;9.77;5.78;;;;;;;;;;5091331;28;20023;-84
2021/04/23 09:51:48;;;;;;;10.18;4.97;;;;;;;;;;5079434;28;20007;-84
2021/04/23 09:54:21;;;;;;;9.55;5.28;;;;;;;;;;5095613;28;20032;-84
2021/04/23 09:56:47;;;;;;;14.65;6.00;;;;;;;;;;5088524;28;20055;-84
2021/04/23 09:59:20;;;;;;;10.98;5.35;;;;;;;;;;5096692;28;20491;-84
2021/04/23 10:01:50;;;;;;;10.43;5.20;;;;;;;;;;5086794;28;20020;-84
2021/04/23 10:04:26;;;;;;;10.43;5.07;;;;;;;;;;5100606;28;20032;-84
2021/04/23 10:07:08;;;;;;;12.70;4.90;;;;;;;;;;5093972;28;20008;-84
2021/04/23 10:09:35;;;;;;;12.20;5.85;;;;;;;;;;5085015;28;20015;-83
2021/04/23 10:12:00;;;;;;;11.18;5.38;;;;;;;;;;5086901;28;20030;-84
2021/04/23 10:14:26;;;;;;;10.52;5.05;;;;;;;;;;5089102;28;20029;-84
2021/04/23 10:16:58;;;;;;;8.93;4.55;;;;;;;;;;5087940;28;20023;-84
2021/04/23 10:19:24;;;;;;;10.13;4.50;;;;;;;;;;5083831;28;20123;-83
2021/04/23 10:21:51;;;;;;;11.05;5.00;;;;;;;;;;5087034;28;20106;-84
2021/04/23 10:24:19;;;;;;;12.02;5.30;;;;;;;;;;5088231;28;20023;-83
2021/04/23 10:26:44;;;;;;;11.55;4.45;;;;;;;;;;5088727;28;20053;-85
2021/04/23 10:29:12;;;;;;;11.77;5.75;;;;;;;;;;5087306;28;20024;-86
2021/04/23 10:31:38;;;;;;;16.98;5.50;;;;;;;;;;5091127;28;20020;-84
2021/04/23 10:34:04;;;;;;;13.70;4.75;;;;;;;;;;5093392;28;20056;-83
2021/04/23 10:36:33;;;;;;;12.80;4.45;;;;;;;;;;5095209;28;20031;-83
2021/04/23 10:38:58;;;;;;;20.58;6.53;;;;;;;;;;5102175;28;20318;-84
2021/04/23 10:41:24;;;;;;;9.57;4.75;;;;;;;;;;5097997;28;20318;-83
2021/04/23 10:43:54;;;;;;;8.30;5.13;;;;;;;;;;5106411;28;20020;-83
2021/04/23 10:46:23;;;;;;;8.98;4.82;;;;;;;;;;5089820;28;20050;-84
2021/04/23 10:51:27;;;;;;;10.15;5.15;;;;;;;;;;5140505;27;20347;-83
2021/04/23 10:53:54;;;;;;;9.07;4.15;;;;;;;;;;5138391;27;20032;-83
2021/04/23 10:56:22;;;;;;;10.93;4.32;;;;;;;;;;5142022;28;20023;-83
2021/04/23 10:58:48;;;;;;;12.00;4.55;;;;;;;;;;5131918;28;20016;-83
2021/04/23 11:01:14;;;;;;;11.30;4.88;;;;;;;;;;5134164;28;20038;-83
2021/04/23 11:03:41;;;;;;;8.32;4.20;;;;;;;;;;5133852;22;20037;-81
2021/04/23 11:06:12;;;;;;;7.45;4.38;;;;;;;;;;5092507;28;20066;-82
2021/04/23 11:08:38;;;;;;;9.68;4.43;;;;;;;;;;5087439;28;20043;-81
2021/04/23 11:11:13;;;;;;;9.70;4.30;;;;;;;;;;5089675;28;20029;-81
2021/04/23 11:13:40;;;;;;;7.88;4.40;;;;;;;;;;5090911;28;20021;-81
2021/04/23 11:16:18;;;;;;;9.20;4.40;;;;;;;;;;5088496;28;20043;-83
2021/04/23 11:18:44;;;;;;;11.50;4.22;;;;;;;;;;5081245;28;20019;-82
2021/04/23 11:21:35;;;;;;;10.70;4.55;;;;;;;;;;5087339;28;20055;-83
2021/04/23 11:24:14;;;;;;;12.57;5.05;;;;;;;;;;5081560;28;20016;-82
2021/04/23 11:26:55;;;;;;;11.27;4.07;;;;;;;;;;5083405;28;20399;-83
2021/04/23 11:29:21;;;;;;;;;;;;;;;;;;5086983;28;20020;-83
2021/04/23 11:32:06;;;;;;;9.68;3.92;;;;;;;;;;5086259;28;19926;-82
2021/04/23 11:34:34;;;;;;;9.93;3.80;;;;;;;;;;5094623;28;20020;-83
2021/04/23 11:37:00;;;;;;;11.43;4.13;;;;;;;;;;5081244;28;20024;-83
2021/04/23 11:39:30;;;;;;;14.63;4.93;;;;;;;;;;5080488;28;20016;-83
2021/04/23 11:42:15;;;;;;;9.05;4.10;;;;;;;;;;5082738;28;20028;-83
2021/04/23 11:46:59;;;;;;;9.75;4.22;;;;;;;;;;5109324;27;20757;-83
2021/04/23 11:49:25;;;;;;;11.13;4.80;;;;;;;;;;5105217;28;20027;-82
2021/04/23 11:51:51;;;;;;;10.65;4.60;;;;;;;;;;5107587;28;20403;-81
2021/04/23 11:54:30;;;;;;;11.85;4.85;;;;;;;;;;5100404;28;20024;-81
2021/04/23 11:56:56;;;;;;;12.95;4.72;;;;;;;;;;5106493;28;20031;-81
2021/04/23 11:59:22;;;;;;;11.77;4.40;;;;;;;;;;5103150;28;20107;-81
2021/04/23 12:01:47;;;;;;;13.15;4.93;;;;;;;;;;5096698;28;20017;-81
2021/04/23 12:04:13;;;;;;;7.75;3.67;;;;;;;;;;5103308;28;20042;-81
2021/04/23 12:06:38;;;;;;;8.20;4.07;;;;;;;;;;5100822;28;20016;-81
2021/04/23 12:09:17;;;;;;;12.75;4.10;;;;;;;;;;5106430;28;20107;-81
2021/04/23 12:11:42;;;;;;;9.38;4.03;;;;;;;;;;5098958;28;20046;-81
2021/04/23 12:14:08;;;;;;;6.75;3.33;;;;;;;;;;5107070;28;20027;-81
2021/04/23 12:16:34;;;;;;;8.30;3.92;;;;;;;;;;5099537;28;20062;-80
2021/04/23 12:19:00;;;;;;;15.75;4.78;;;;;;;;;;5097554;28;20035;-81
2021/04/23 12:21:26;;;;;;;7.90;3.55;;;;;;;;;;5105869;28;20024;-80
2021/04/23 12:23:52;;;;;;;9.60;4.22;;;;;;;;;;5093384;28;20213;-81
2021/04/23 12:26:18;;;;;;;9.73;4.35;;;;;;;;;;5102730;28;20020;-82
2021/04/23 12:28:47;;;;;;;11.48;4.68;;;;;;;;;;5102274;28;20391;-82
2021/04/23 12:31:23;;;;;;;9.25;4.43;;;;;;;;;;5099606;28;20048;-81
2021/04/23 12:33:50;;;;;;;8.25;4.05;;;;;;;;;;5093862;28;20016;-82
2021/04/23 12:36:24;;;;;;;17.77;4.22;;;;;;;;;;5101764;28;20097;-81
2021/04/23 12:41:15;;;;;;;11.50;4.90;;;;;;;;;;5110165;27;20410;-81
2021/04/23 12:43:41;;;;;;;11.70;4.07;;;;;;;;;;5123165;27;20024;-82
2021/04/23 12:46:07;;;;;;;9.77;4.22;;;;;;;;;;5107112;28;20015;-81
2021/04/23 12:48:33;;;;;;;11.90;3.72;;;;;;;;;;5127762;27;20080;-82
2021/04/23 12:50:58;;;;;;;8.52;4.18;;;;;;;;;;5117109;28;20027;-81
2021/04/23 12:53:25;;;;;;;8.95;3.95;;;;;;;;;;5115196;28;20495;-81
2021/04/23 12:55:53;;;;;;;9.93;4.32;;;;;;;;;;5120656;27;20040;-81
2021/04/23 12:58:19;;;;;;;13.65;4.78;;;;;;;;;;5124901;28;20011;-81
2021/04/23 13:00:45;;;;;;;6.03;3.40;;;;;;;;;;5125806;27;20011;-81
2021/04/23 13:03:11;;;;;;;8.20;3.53;;;;;;;;;;5120140;27;20020;-81
2021/04/23 13:05:43;;;;;;;9.10;4.10;;;;;;;;;;5122033;27;20030;-81
2021/04/23 13:08:09;;;;;;;9.25;4.72;;;;;;;;;;5112393;28;20073;-82
2021/04/23 13:10:42;;;;;;;9.98;4.00;;;;;;;;;;5118928;28;20043;-81
2021/04/23 13:13:12;;;;;;;9.57;4.55;;;;;;;;;;5114219;27;20023;-81
2021/04/23 13:15:37;;;;;;;7.90;4.13;;;;;;;;;;5113851;28;20019;-81
2021/04/23 13:18:17;;;;;;;13.13;5.13;;;;;;;;;;5107127;28;20073;-81
2021/04/23 13:20:52;;;;;;;8.95;4.53;;;;;;;;;;5106269;28;20073;-81
2021/04/23 13:23:28;;;;;;;9.13;3.97;;;;;;;;;;5096408;28;20023;-81
2021/04/23 13:25:54;;;;;;;7.38;3.78;;;;;;;;;;5113312;28;20375;-81
2021/04/23 13:28:20;;;;;;;8.93;3.60;;;;;;;;;;5098960;28;20024;-80
2021/04/23 13:30:45;;;;;;;7.95;4.30;;;;;;;;;;5095906;28;20025;-80
2021/04/23 13:33:19;;;;;;;7.05;3.60;;;;;;;;;;5095690;28;20083;-81
2021/04/23 13:35:46;;;;;;;8.80;3.22;;;;;;;;;;5094535;28;20047;-80
2021/04/23 13:38:18;;;;;;;8.82;4.20;;;;;;;;;;5097827;28;20114;-81
2021/04/23 13:40:44;;;;;;;8.00;4.10;;;;;;;;;;5098720;28;20431;-81
2021/04/23 13:43:10;;;;;;;11.30;5.20;;;;;;;;;;5100773;28;20103;-81
2021/04/23 13:45:37;;;;;;;7.72;4.35;;;;;;;;;;5101049;28;20020;-81
2021/04/23 13:48:15;;;;;;;10.30;4.70;;;;;;;;;;5098133;28;20007;-81
2021/04/23 13:50:40;;;;;;;10.00;4.10;;;;;;;;;;5094375;28;20422;-82
2021/04/23 13:53:06;;;;;;;10.82;3.67;;;;;;;;;;5087688;28;20032;-81
2021/04/23 13:55:32;;;;;;;8.90;4.25;;;;;;;;;;5094760;28;20062;-78
2021/04/23 13:58:06;;;;;;;11.18;3.80;;;;;;;;;;5093011;28;20037;-80
2021/04/23 14:00:52;;;;;;;7.88;3.42;;;;;;;;;;5097603;28;20679;-83
2021/04/23 14:03:18;;;;;;;7.28;4.38;;;;;;;;;;5089122;28;20396;-79
2021/04/23 14:05:43;;;;;;;10.45;3.70;;;;;;;;;;5095671;28;20023;-79
2021/04/23 14:08:09;;;;;;;9.55;3.70;;;;;;;;;;5096834;28;20098;-79
2021/04/23 14:10:38;;;;;;;6.20;3.50;;;;;;;;;;5107561;28;20020;-80
2021/04/23 14:13:05;;;;;;;12.98;4.45;;;;;;;;;;5105628;28;20463;-79
2021/04/23 14:15:30;;;;;;;8.13;3.72;;;;;;;;;;5110238;28;20019;-78
2021/04/23 14:17:56;;;;;;;6.75;3.50;;;;;;;;;;5099518;28;20073;-78
2021/04/23 14:20:22;;;;;;;13.10;4.72;;;;;;;;;;5097691;28;20023;-79
2021/04/23 14:22:47;;;;;;;7.50;3.42;;;;;;;;;;5104218;28;20544;-79
2021/04/23 14:25:13;;;;;;;6.90;3.78;;;;;;;;;;5099714;28;20024;-79
2021/04/23 14:27:39;;;;;;;7.72;3.55;;;;;;;;;;5108948;27;20449;-79
2021/04/23 14:30:06;;;;;;;6.05;3.40;;;;;;;;;;5100283;28;20107;-79
2021/04/23 14:32:32;;;;;;;7.82;3.28;;;;;;;;;;5112171;28;20032;-79
2021/04/23 14:34:57;;;;;;;9.20;3.78;;;;;;;;;;5100522;28;20034;-79
2021/04/23 14:37:23;;;;;;;7.55;3.30;;;;;;;;;;5106229;28;20466;-79
2021/04/23 14:39:49;;;;;;;8.88;3.17;;;;;;;;;;5095016;28;20095;-79
2021/04/23 14:42:14;;;;;;;7.18;3.33;;;;;;;;;;5098106;28;20484;-79
2021/04/23 14:44:40;;;;;;;8.43;2.70;;;;;;;;;;5107243;28;20370;-79
2021/04/23 14:47:06;;;;;;;6.00;3.40;;;;;;;;;;5089789;28;20020;-79
2021/04/23 14:49:31;;;;;;;8.85;3.50;;;;;;;;;;5105320;28;20107;-79
2021/04/23 14:51:57;;;;;;;9.35;3.42;;;;;;;;;;5096555;28;20036;-79
2021/04/23 14:54:23;;;;;;;8.25;3.78;;;;;;;;;;5097318;28;20443;-79
2021/04/23 14:56:49;;;;;;;7.45;3.70;;;;;;;;;;5107807;28;20059;-79
2021/04/23 14:59:14;;;;;;;10.10;4.30;;;;;;;;;;5101227;28;20046;-79
2021/04/23 15:01:40;;;;;;;6.68;3.38;;;;;;;;;;5093655;28;20100;-79
2021/04/23 15:04:06;;;;;;;9.52;3.45;;;;;;;;;;5106403;28;20539;-79
2021/04/23 15:06:32;;;;;;;6.07;3.22;;;;;;;;;;5096496;28;20016;-79
2021/04/23 15:08:57;;;;;;;8.68;3.95;;;;;;;;;;5108432;28;20111;-80
2021/04/23 15:11:23;;;;;;;7.78;4.25;;;;;;;;;;5094923;28;20016;-80
2021/04/23 15:13:49;;;;;;;9.57;3.50;;;;;;;;;;5106360;28;20026;-80
2021/04/23 15:16:14;;;;;;;7.57;3.70;;;;;;;;;;5101089;28;20371;-79
2021/04/23 15:18:43;;;;;;;8.98;3.72;;;;;;;;;;5091286;28;20455;-80
2021/04/23 15:21:10;;;;;;;9.25;3.80;;;;;;;;;;5104056;28;20473;-80
2021/04/23 15:23:35;;;;;;;9.98;4.72;;;;;;;;;;5094737;28;20069;-80
2021/04/23 15:26:01;;;;;;;9.95;4.47;;;;;;;;;;5106130;28;20028;-79
2021/04/23 15:28:27;;;;;;;10.85;4.38;;;;;;;;;;5084437;28;20107;-80
2021/04/23 15:30:54;;;;;;;14.10;4.05;;;;;;;;;;5105263;28;20023;-80
2021/04/23 15:33:20;;;;;;;10.77;4.18;;;;;;;;;;5102058;28;20472;-79
2021/04/23 15:35:46;;;;;;;7.75;3.92;;;;;;;;;;5091130;28;20024;-80
2021/04/23 15:38:13;;;;;;;7.03;3.60;;;;;;;;;;5105480;28;20055;-79
2021/04/23 15:40:39;;;;;;;7.88;3.90;;;;;;;;;;5079171;28;20399;-79
2021/04/23 15:43:05;;;;;;;7.95;3.50;;;;;;;;;;5106028;28;20052;-80
2021/04/23 15:45:32;;;;;;;6.72;3.13;;;;;;;;;;5096364;28;20533;-80
2021/04/23 15:47:59;;;;;;;6.22;3.47;;;;;;;;;;5106788;28;20024;-79
2021/04/23 15:50:25;;;;;;;8.80;3.58;;;;;;;;;;5093972;28;20562;-80
2021/04/23 15:52:51;;;;;;;9.00;3.35;;;;;;;;;;5090124;28;20071;-80
2021/04/23 15:55:17;;;;;;;10.23;4.15;;;;;;;;;;5106083;28;20023;-80
2021/04/23 15:57:43;;;;;;;5.00;2.97;;;;;;;;;;5097494;28;20028;-79
2021/04/23 16:00:11;;;;;;;10.32;3.42;;;;;;;;;;5096463;28;20027;-80
2021/04/23 16:02:37;;;;;;;6.45;3.72;;;;;;;;;;5098199;28;20051;-79
2021/04/23 16:05:04;;;;;;;15.45;5.95;;;;;;;;;;5096798;28;20495;-79
2021/04/23 16:07:30;;;;;;;10.82;4.25;;;;;;;;;;5101611;28;20044;-79
2021/04/23 16:09:55;;;;;;;10.77;4.13;;;;;;;;;;5103114;28;20035;-79
2021/04/23 16:12:21;;;;;;;11.48;6.57;;;;;;;;;;5088527;28;20395;-82
2021/04/23 16:14:47;;;;;;;19.52;16.63;;;;;;;;;;5086698;28;20111;-79
2021/04/23 16:17:12;;;;;;;8.05;4.40;;;;;;;;;;5092322;28;20035;-80
2021/04/23 16:19:38;;;;;;;8.70;4.25;;;;;;;;;;5093637;28;20495;-80
2021/04/23 16:22:04;;;;;;;6.97;3.40;;;;;;;;;;5100566;28;20075;-81
2021/04/23 16:24:29;;;;;;;8.88;3.55;;;;;;;;;;5092673;28;20547;-81
2021/04/23 16:26:55;;;;;;;6.53;4.10;;;;;;;;;;5087478;28;20495;-80
2021/04/23 16:29:21;;;;;;;21.27;13.70;;;;;;;;;;5093677;28;20103;-81
2021/04/23 16:31:46;;;;;;;26.58;16.35;;;;;;;;;;5102687;28;20481;-81
2021/04/23 16:34:12;;;;;;;12.18;4.75;;;;;;;;;;5096974;28;20107;-81
2021/04/23 16:36:38;;;;;;;8.63;4.20;;;;;;;;;;5105180;28;20026;-81
2021/04/23 16:39:04;;;;;;;6.97;4.43;;;;;;;;;;5103839;28;20035;-81
2021/04/23 16:41:29;;;;;;;10.48;6.68;;;;;;;;;;5091883;28;20039;-82
2021/04/23 16:43:55;;;;;;;13.50;9.80;;;;;;;;;;5094189;28;20024;-80
2021/04/23 16:46:21;;;;;;;8.07;4.53;;;;;;;;;;5099465;28;20495;-81
2021/04/23 16:48:46;;;;;;;9.85;4.25;;;;;;;;;;5107830;28;20014;-81
2021/04/23 16:51:12;;;;;;;6.82;3.13;;;;;;;;;;5094630;28;20025;-81
2021/04/23 16:53:38;;;;;;;8.23;2.65;;;;;;;;;;5081505;28;20020;-81
2021/04/23 16:56:04;;;;;;;6.90;3.60;;;;;;;;;;5098594;28;20095;-82
2021/04/23 16:58:29;;;;;;;5.13;2.88;;;;;;;;;;5098382;28;20099;-81
2021/04/23 17:00:55;;;;;;;4.63;3.00;;;;;;;;;;5092538;28;20028;-80
2021/04/23 17:03:21;;;;;;;8.15;3.45;;;;;;;;;;5115482;22;20004;-81
2021/04/23 17:05:46;;;;;;;7.07;3.25;;;;;;;;;;5084495;28;20103;-81
2021/04/23 17:08:12;;;;;;;8.98;3.33;;;;;;;;;;5082561;28;20088;-82
2021/04/23 17:10:38;;;;;;;7.22;3.03;;;;;;;;;;5085023;28;20050;-81
2021/04/23 17:13:04;;;;;;;7.40;4.30;;;;;;;;;;5085571;28;20032;-82
2021/04/23 17:15:29;;;;;;;9.20;3.10;;;;;;;;;;5099774;28;20024;-82
2021/04/23 17:17:55;;;;;;;9.77;3.10;;;;;;;;;;5081455;28;20124;-81
2021/04/23 17:20:21;;;;;;;9.10;4.05;;;;;;;;;;5101466;28;20024;-81
2021/04/23 17:22:48;;;;;;;10.60;4.13;;;;;;;;;;5100221;28;20436;-82
2021/04/23 17:25:15;;;;;;;8.10;3.90;;;;;;;;;;5100259;28;20020;-83
2021/04/23 17:27:42;;;;;;;11.55;5.53;;;;;;;;;;5082853;28;20034;-83
2021/04/23 17:30:09;;;;;;;8.57;4.43;;;;;;;;;;5088350;28;20111;-81
2021/04/23 17:32:35;;;;;;;7.38;3.33;;;;;;;;;;5090761;28;20027;-82
2021/04/23 17:35:00;;;;;;;8.55;3.67;;;;;;;;;;5103261;28;20051;-82
2021/04/23 17:37:26;;;;;;;7.90;4.07;;;;;;;;;;5105506;28;20016;-82
2021/04/23 17:39:52;;;;;;;8.32;3.70;;;;;;;;;;5082106;28;20034;-82
2021/04/23 17:42:17;;;;;;;7.22;3.80;;;;;;;;;;5083405;28;20019;-83
2021/04/23 17:44:43;;;;;;;10.60;4.00;;;;;;;;;;5100512;28;20088;-83
2021/04/23 17:47:09;;;;;;;7.07;3.30;;;;;;;;;;5083717;28;20023;-82
2021/04/23 17:49:35;;;;;;;8.07;3.40;;;;;;;;;;5096075;28;20107;-84
2021/04/23 17:52:02;;;;;;;6.93;3.20;;;;;;;;;;5081580;28;20075;-82
2021/04/23 17:54:28;;;;;;;8.98;3.08;;;;;;;;;;5089162;28;20061;-85
2021/04/23 17:56:54;;;;;;;11.13;3.25;;;;;;;;;;5083622;28;20114;-84
2021/04/23 17:59:19;;;;;;;6.80;4.07;;;;;;;;;;5101173;28;20024;-85
2021/04/23 18:01:45;;;;;;;11.23;3.72;;;;;;;;;;5104335;28;20030;-83
2021/04/23 18:04:11;;;;;;;4.95;2.83;;;;;;;;;;5102010;28;20024;-82
2021/04/23 18:06:37;;;;;;;6.95;2.67;;;;;;;;;;5083468;28;20198;-85
2021/04/23 18:09:05;;;;;;;11.13;4.63;;;;;;;;;;5077926;28;20020;-84
2021/04/23 18:11:31;;;;;;;9.45;3.33;;;;;;;;;;5098170;28;20049;-85
2021/04/23 18:13:57;;;;;;;8.43;2.53;;;;;;;;;;5083438;28;20032;-84
2021/04/23 18:16:27;;;;;;;5.25;2.33;;;;;;;;;;5076099;28;20046;-85
2021/04/23 18:18:53;;;;;;;5.45;2.35;;;;;;;;;;5081686;28;20024;-82
2021/04/23 18:21:18;;;;;;;4.78;2.25;;;;;;;;;;5083918;28;20081;-85
2021/04/23 18:23:44;;;;;;;7.22;2.20;;;;;;;;;;5082637;28;20452;-85
2021/04/23 18:26:10;;;;;;;6.40;2.03;;;;;;;;;;5086352;28;20030;-82
2021/04/23 18:28:36;;;;;;;5.63;1.90;;;;;;;;;;5100295;28;20027;-82
2021/04/23 18:31:02;;;;;;;5.15;1.90;;;;;;;;;;5083922;28;20412;-85
2021/04/23 18:33:30;;;;;;;3.78;1.60;;;;;;;;;;5102163;28;20031;-84
2021/04/23 18:35:55;;;;;;;4.97;1.83;;;;;;;;;;5102498;28;20059;-84
2021/04/23 18:38:21;;;;;;;5.97;1.90;;;;;;;;;;5083628;28;20450;-82
2021/04/23 18:40:47;;;;;;;7.78;1.65;;;;;;;;;;5084939;28;20031;-84
2021/04/23 18:43:13;;;;;;;4.90;1.67;;;;;;;;;;5103114;28;20043;-84
2021/04/23 18:45:39;;;;;;;3.67;1.75;;;;;;;;;;5086065;28;20043;-84
2021/04/23 18:48:05;;;;;;;6.45;2.40;;;;;;;;;;5092940;28;20152;-84
2021/04/23 18:50:30;;;;;;;4.78;1.80;;;;;;;;;;5096376;28;20039;-86
2021/04/23 18:52:56;;;;;;;7.60;3.20;;;;;;;;;;5092774;28;20020;-86
2021/04/23 18:55:22;;;;;;;10.55;4.05;;;;;;;;;;5096658;28;20023;-86
2021/04/23 18:57:48;;;;;;;6.60;2.70;;;;;;;;;;5106593;28;20036;-85
2021/04/23 19:00:15;;;;;;;5.82;2.25;;;;;;;;;;5107867;28;20034;-84
2021/04/23 19:02:41;;;;;;;9.10;2.65;;;;;;;;;;5090431;28;20024;-84
2021/04/23 19:05:07;;;;;;;14.20;3.05;;;;;;;;;;5110621;28;20096;-83
2021/04/23 19:07:32;;;;;;;4.82;1.90;;;;;;;;;;5112367;28;20004;-84
2021/04/23 19:09:58;;;;;;;9.45;3.67;;;;;;;;;;5091259;28;20102;-84
2021/04/23 19:12:24;;;;;;;7.50;2.70;;;;;;;;;;5093706;28;20356;-85
2021/04/23 19:14:50;;;;;;;10.30;2.97;;;;;;;;;;5091267;28;20039;-84
2021/04/23 19:19:34;;;;;;;4.88;2.33;;;;;;;;;;5125964;27;20371;-85
2021/04/23 19:22:00;;;;;;;11.43;2.25;;;;;;;;;;5126796;28;20030;-86
2021/04/23 19:24:26;;;;;;;5.57;2.20;;;;;;;;;;5117032;28;20039;-83
2021/04/23 19:26:53;;;;;;;6.40;2.00;;;;;;;;;;5114620;28;20178;-84
2021/04/23 19:29:19;;;;;;;3.60;1.90;;;;;;;;;;5116380;28;20478;-85
2021/04/23 19:31:45;;;;;;;9.43;1.75;;;;;;;;;;5113999;28;20082;-84
2021/04/23 19:34:10;;;;;;;4.80;1.70;;;;;;;;;;5116073;28;20079;-88
2021/04/23 19:36:36;;;;;;;4.18;1.88;;;;;;;;;;5118145;28;20088;-86